Time;durP1;ratioP1;P1;durP2;ratioP2;P2;SDS_P1;SDS_P2;PMS_P1;PMS_P2;Temp;Humidity;BMP_temperature;BMP_pressure;BME280_temperature;BME280_humidity;BME280_pressure;Samples;Min_cycle;Max_cycle;Signal;HPM_P1;HPM_P2
2024/03/02 00:02:05;;;;;;;;;;;;;;;;;;5101469;28;19935;-80
2024/03/02 00:04:32;;;;;;;;;;;;;;;;;;5106379;28;19932;-81
2024/03/02 00:06:59;;;;;;;;;;;;;;;;;;5106548;28;19934;-82
2024/03/02 00:09:26;;;;;;;;;;;;;;;;;;5097408;28;20090;-81
2024/03/02 00:11:53;;;;;;;;;;;;;;;;;;5102897;28;19971;-84
2024/03/02 00:14:20;;;;;;;;;;;;;;;;;;5104731;28;19932;-83
2024/03/02 00:16:47;;;;;;;;;;;;;;;;;;5103641;28;19946;-83
2024/03/02 00:19:14;;;;;;;;;;;;;;;;;;5106429;28;20395;-83
2024/03/02 00:21:41;;;;;;;;;;;;;;;;;;5105334;28;19959;-81
2024/03/02 00:24:08;;;;;;;;;;;;;;;;;;5103629;28;20513;-82
2024/03/02 00:26:35;;;;;;;;;;;;;;;;;;5102856;28;20014;-81
2024/03/02 00:29:02;;;;;;;;;;;;;;;;;;5097560;28;20118;-81
2024/03/02 00:31:29;;;;;;;;;;;;;;;;;;5095184;28;19927;-82
2024/03/02 00:33:56;;;;;;;;;;;;;;;;;;5111759;28;19981;-82
2024/03/02 00:36:24;;;;;;;;;;;;;;;;;;5106413;28;19935;-82
2024/03/02 00:38:51;;;;;;;;;;;;;;;;;;5099238;28;19928;-82
2024/03/02 00:41:18;;;;;;;;;;;;;;;;;;5107576;28;19928;-83
2024/03/02 00:43:45;;;;;;;;;;;;;;;;;;5110754;28;20050;-81
2024/03/02 00:46:12;;;;;;;;;;;;;;;;;;5112247;28;19928;-81
2024/03/02 00:48:39;;;;;;;;;;;;;;;;;;5111993;28;20026;-83
2024/03/02 00:51:06;;;;;;;;;;;;;;;;;;5111897;28;20044;-83
2024/03/02 00:53:33;;;;;;;;;;;;;;;;;;5111253;28;20009;-83
2024/03/02 00:56:00;;;;;;;;;;;;;;;;;;5110851;28;19997;-85
2024/03/02 00:58:27;;;;;;;;;;;;;;;;;;5113035;28;19928;-85
2024/03/02 01:00:55;;;;;;;;;;;;;;;;;;5101804;28;20458;-83
2024/03/02 01:03:22;;;;;;;;;;;;;;;;;;5113120;28;19971;-82
2024/03/02 01:05:49;;;;;;;;;;;;;;;;;;5112150;28;20010;-84
2024/03/02 01:08:16;;;;;;;;;;;;;;;;;;5098425;28;20348;-84
2024/03/02 01:10:43;;;;;;;;;;;;;;;;;;5104194;28;20309;-82
2024/03/02 01:13:10;;;;;;;;;;;;;;;;;;5104836;28;19955;-79
2024/03/02 01:15:37;;;;;;;;;;;;;;;;;;5103216;28;19939;-81
2024/03/02 01:18:04;;;;;;;;;;;;;;;;;;5109039;28;19928;-83
2024/03/02 01:20:30;;;;;;;;;;;;;;;;;;5107890;28;20059;-77
2024/03/02 01:22:57;;;;;;;;;;;;;;;;;;5104701;28;19928;-79
2024/03/02 01:25:24;;;;;;;;;;;;;;;;;;5109317;28;20409;-79
2024/03/02 01:27:52;;;;;;;;;;;;;;;;;;5113528;28;19971;-80
2024/03/02 01:30:19;;;;;;;;;;;;;;;;;;5101175;27;19935;-80
2024/03/02 01:32:46;;;;;;;;;;;;;;;;;;5110307;28;20428;-81
2024/03/02 01:35:13;;;;;;;;;;;;;;;;;;5109932;28;19927;-79
2024/03/02 01:37:40;;;;;;;;;;;;;;;;;;5109640;28;19951;-81
2024/03/02 01:40:09;;;;;;;;;;;;;;;;;;5109149;28;19990;-79
2024/03/02 01:42:36;;;;;;;;;;;;;;;;;;5108839;28;19981;-79
2024/03/02 01:45:03;;;;;;;;;;;;;;;;;;5101147;28;20341;-81
2024/03/02 01:47:30;;;;;;;;;;;;;;;;;;5097965;28;20275;-82
2024/03/02 01:49:58;;;;;;;;;;;;;;;;;;5111038;28;19928;-81
2024/03/02 01:52:25;;;;;;;;;;;;;;;;;;5103419;28;19935;-79
2024/03/02 01:54:52;;;;;;;;;;;;;;;;;;5106866;28;19975;-80
2024/03/02 01:57:19;;;;;;;;;;;;;;;;;;5109397;28;20405;-80
2024/03/02 01:59:47;;;;;;;;;;;;;;;;;;5108549;28;20035;-79
2024/03/02 02:02:14;;;;;;;;;;;;;;;;;;5102956;28;20051;-82
2024/03/02 02:04:41;;;;;;;;;;;;;;;;;;5097631;28;19977;-81
2024/03/02 02:07:08;;;;;;;;;;;;;;;;;;5107891;28;20343;-80
2024/03/02 02:09:35;;;;;;;;;;;;;;;;;;5109722;28;20012;-82
2024/03/02 02:12:03;;;;;;;;;;;;;;;;;;5108647;28;19963;-81
2024/03/02 02:14:30;;;;;;;;;;;;;;;;;;5098887;28;19935;-80
2024/03/02 02:16:57;;;;;;;;;;;;;;;;;;5110552;28;19932;-80
2024/03/02 02:19:24;;;;;;;;;;;;;;;;;;5110670;28;19950;-78
2024/03/02 02:21:51;;;;;;;;;;;;;;;;;;5108419;28;20023;-80
2024/03/02 02:24:18;;;;;;;;;;;;;;;;;;5107822;28;20012;-78
2024/03/02 02:26:45;;;;;;;;;;;;;;;;;;5105039;28;19927;-81
2024/03/02 02:29:12;;;;;;;;;;;;;;;;;;5108699;28;19928;-78
2024/03/02 02:31:39;;;;;;;;;;;;;;;;;;5109044;28;20378;-78
2024/03/02 02:34:06;;;;;;;;;;;;;;;;;;5107642;28;19928;-79
2024/03/02 02:36:33;;;;;;;;;;;;;;;;;;5108883;28;20487;-80
2024/03/02 02:39:01;;;;;;;;;;;;;;;;;;5101918;28;20022;-78
2024/03/02 02:41:28;;;;;;;;;;;;;;;;;;5100978;28;20022;-76
2024/03/02 02:43:55;;;;;;;;;;;;;;;;;;5096306;28;20023;-78
2024/03/02 02:46:22;;;;;;;;;;;;;;;;;;5103940;28;20458;-79
2024/03/02 02:48:50;;;;;;;;;;;;;;;;;;5098483;28;19935;-80
2024/03/02 02:51:19;;;;;;;;;;;;;;;;;;5098000;28;19927;-79
2024/03/02 02:53:47;;;;;;;;;;;;;;;;;;5106960;28;20299;-79
2024/03/02 02:56:14;;;;;;;;;;;;;;;;;;5101677;28;20694;-81
2024/03/02 02:58:41;;;;;;;;;;;;;;;;;;5106951;28;19931;-78
2024/03/02 03:01:10;;;;;;;;;;;;;;;;;;5108991;28;20497;-79
2024/03/02 03:03:37;;;;;;;;;;;;;;;;;;5107644;28;19927;-79
2024/03/02 03:06:05;;;;;;;;;;;;;;;;;;5096253;28;19928;-81
2024/03/02 03:08:32;;;;;;;;;;;;;;;;;;5108609;27;19932;-81
2024/03/02 03:10:59;;;;;;;;;;;;;;;;;;5110234;28;20294;-81
2024/03/02 03:13:26;;;;;;;;;;;;;;;;;;5109174;28;19996;-80
2024/03/02 03:15:53;;;;;;;;;;;;;;;;;;5100510;28;19958;-79
2024/03/02 03:18:20;;;;;;;;;;;;;;;;;;5107720;28;20562;-81
2024/03/02 03:20:47;;;;;;;;;;;;;;;;;;5100194;28;19928;-80
2024/03/02 03:23:16;;;;;;;;;;;;;;;;;;5097739;28;20026;-81
2024/03/02 03:25:43;;;;;;;;;;;;;;;;;;5094198;28;19973;-80
2024/03/02 03:28:10;;;;;;;;;;;;;;;;;;5101241;28;20332;-81
2024/03/02 03:30:37;;;;;;;;;;;;;;;;;;5104023;28;19928;-83
2024/03/02 03:33:05;;;;;;;;;;;;;;;;;;5101118;28;19967;-80
2024/03/02 03:35:32;;;;;;;;;;;;;;;;;;5104834;28;20419;-82
2024/03/02 03:37:59;;;;;;;;;;;;;;;;;;5107888;28;19927;-80
2024/03/02 03:40:26;;;;;;;;;;;;;;;;;;5105430;28;19928;-80
2024/03/02 03:42:55;;;;;;;;;;;;;;;;;;5092962;28;19928;-82
2024/03/02 03:45:25;;;;;;;;;;;;;;;;;;5094962;28;19927;-80
2024/03/02 03:47:52;;;;;;;;;;;;;;;;;;5107935;28;19932;-82
2024/03/02 03:50:19;;;;;;;;;;;;;;;;;;5102767;28;20372;-82
2024/03/02 03:52:46;;;;;;;;;;;;;;;;;;5108632;28;20010;-80
2024/03/02 03:55:13;;;;;;;;;;;;;;;;;;5097259;28;20430;-82
2024/03/02 03:57:40;;;;;;;;;;;;;;;;;;5109351;28;20450;-81
2024/03/02 04:00:10;;;;;;;;;;;;;;;;;;5100640;28;19933;-78
2024/03/02 04:02:37;;;;;;;;;;;;;;;;;;5109325;28;19928;-81
2024/03/02 04:05:08;;;;;;;;;;;;;;;;;;5112659;28;19928;-81
2024/03/02 04:07:39;;;;;;;;;;;;;;;;;;5107847;28;20361;-80
2024/03/02 04:10:08;;;;;;;;;;;;;;;;;;5100273;28;19981;-81
2024/03/02 04:12:37;;;;;;;;;;;;;;;;;;5108464;28;20422;-81
2024/03/02 04:15:06;;;;;;;;;;;;;;;;;;5112261;28;19928;-81
2024/03/02 04:17:33;;;;;;;;;;;;;;;;;;5106964;28;19935;-81
2024/03/02 04:20:00;;;;;;;;;;;;;;;;;;5099518;28;19935;-81
2024/03/02 04:22:27;;;;;;;;;;;;;;;;;;5108695;28;19928;-79
2024/03/02 04:24:54;;;;;;;;;;;;;;;;;;5095198;28;20313;-82
2024/03/02 04:27:21;;;;;;;;;;;;;;;;;;5104572;28;19971;-79
2024/03/02 04:29:48;;;;;;;;;;;;;;;;;;5107520;28;20361;-80
2024/03/02 04:32:15;;;;;;;;;;;;;;;;;;5104839;28;19932;-78
2024/03/02 04:34:42;;;;;;;;;;;;;;;;;;5104612;28;20006;-82
2024/03/02 04:37:09;;;;;;;;;;;;;;;;;;5109583;28;19935;-81
2024/03/02 04:39:36;;;;;;;;;;;;;;;;;;5105852;28;19923;-81
2024/03/02 04:42:03;;;;;;;;;;;;;;;;;;5102321;28;19928;-81
2024/03/02 04:44:30;;;;;;;;;;;;;;;;;;5104393;28;19932;-81
2024/03/02 04:46:57;;;;;;;;;;;;;;;;;;5096820;28;20060;-77
2024/03/02 04:49:24;;;;;;;;;;;;;;;;;;5106010;28;19934;-78
2024/03/02 04:51:52;;;;;;;;;;;;;;;;;;5103384;28;19974;-80
2024/03/02 04:54:19;;;;;;;;;;;;;;;;;;5111417;28;20298;-79
2024/03/02 04:56:49;;;;;;;;;;;;;;;;;;5111391;28;19931;-81
2024/03/02 04:59:16;;;;;;;;;;;;;;;;;;5100904;28;19984;-81
2024/03/02 05:01:43;;;;;;;;;;;;;;;;;;5108298;28;20023;-79
2024/03/02 05:04:11;;;;;;;;;;;;;;;;;;5112188;28;20026;-80
2024/03/02 05:06:38;;;;;;;;;;;;;;;;;;5100886;28;19928;-83
2024/03/02 05:09:05;;;;;;;;;;;;;;;;;;5107358;28;19927;-79
2024/03/02 05:14:17;;;;;;;;;;;;;;;;;;5110927;28;20289;-79
2024/03/02 05:16:44;;;;;;;;;;;;;;;;;;5108391;28;19927;-81
2024/03/02 05:19:11;;;;;;;;;;;;;;;;;;5109733;28;19924;-79
2024/03/02 05:21:38;;;;;;;;;;;;;;;;;;5103114;28;19976;-77
2024/03/02 05:24:05;;;;;;;;;;;;;;;;;;5110043;28;20014;-77
2024/03/02 05:26:32;;;;;;;;;;;;;;;;;;5108746;28;19928;-77
2024/03/02 05:28:59;;;;;;;;;;;;;;;;;;5105212;28;19931;-81
2024/03/02 05:31:26;;;;;;;;;;;;;;;;;;5105700;28;20413;-78
2024/03/02 05:33:53;;;;;;;;;;;;;;;;;;5105614;28;20018;-77
2024/03/02 05:36:21;;;;;;;;;;;;;;;;;;5108378;28;20026;-80
2024/03/02 05:38:48;;;;;;;;;;;;;;;;;;5107024;28;20305;-78
2024/03/02 05:41:15;;;;;;;;;;;;;;;;;;5103173;28;20321;-79
2024/03/02 05:43:42;;;;;;;;;;;;;;;;;;5107594;28;20011;-82
2024/03/02 05:46:09;;;;;;;;;;;;;;;;;;5106083;28;20343;-78
2024/03/02 05:48:36;;;;;;;;;;;;;;;;;;5102042;28;19975;-80
2024/03/02 05:51:03;;;;;;;;;;;;;;;;;;5108198;28;20291;-81
2024/03/02 05:53:30;;;;;;;;;;;;;;;;;;5104387;28;19974;-78
2024/03/02 05:55:57;;;;;;;;;;;;;;;;;;5111419;28;19931;-80
2024/03/02 05:58:37;;;;;;;;;;;;;;;;;;5109773;28;19932;-79
2024/03/02 06:01:04;;;;;;;;;;;;;;;;;;5097441;28;19930;-80
2024/03/02 06:03:31;;;;;;;;;;;;;;;;;;5107106;28;19927;-81
2024/03/02 06:05:58;;;;;;;;;;;;;;;;;;5106008;28;19974;-78
2024/03/02 06:08:25;;;;;;;;;;;;;;;;;;5100727;28;20427;-77
2024/03/02 06:10:52;;;;;;;;;;;;;;;;;;5100344;28;19977;-80
2024/03/02 06:13:19;;;;;;;;;;;;;;;;;;5111045;28;20348;-81
2024/03/02 06:15:46;;;;;;;;;;;;;;;;;;5102832;28;19928;-79
2024/03/02 06:18:14;;;;;;;;;;;;;;;;;;5093763;28;19971;-77
2024/03/02 06:20:41;;;;;;;;;;;;;;;;;;5107757;28;19931;-77
2024/03/02 06:23:08;;;;;;;;;;;;;;;;;;5097561;28;19931;-79
2024/03/02 06:25:35;;;;;;;;;;;;;;;;;;5105338;28;19928;-80
2024/03/02 06:28:02;;;;;;;;;;;;;;;;;;5108096;28;19932;-79
2024/03/02 06:30:29;;;;;;;;;;;;;;;;;;5108202;28;19935;-79
2024/03/02 06:32:56;;;;;;;;;;;;;;;;;;5109507;27;19981;-78
2024/03/02 06:35:23;;;;;;;;;;;;;;;;;;5106948;28;19972;-80
2024/03/02 06:37:51;;;;;;;;;;;;;;;;;;5094018;28;20670;-79
2024/03/02 06:40:18;;;;;;;;;;;;;;;;;;5090662;28;20299;-76
2024/03/02 06:42:45;;;;;;;;;;;;;;;;;;5105830;28;19963;-79
2024/03/02 06:45:12;;;;;;;;;;;;;;;;;;5099010;28;19932;-78
2024/03/02 06:47:39;;;;;;;;;;;;;;;;;;5104302;28;19934;-80
2024/03/02 06:50:07;;;;;;;;;;;;;;;;;;5110711;28;19981;-79
2024/03/02 06:52:34;;;;;;;;;;;;;;;;;;5107215;28;19938;-77
2024/03/02 06:55:01;;;;;;;;;;;;;;;;;;5099864;28;19975;-80
2024/03/02 06:57:28;;;;;;;;;;;;;;;;;;5107296;28;20015;-80
2024/03/02 06:59:58;;;;;;;;;;;;;;;;;;5100158;28;20465;-77
2024/03/02 07:02:26;;;;;;;;;;;;;;;;;;5104901;28;19928;-78
2024/03/02 07:04:53;;;;;;;;;;;;;;;;;;5104996;28;19927;-78
2024/03/02 07:07:20;;;;;;;;;;;;;;;;;;5100369;28;20383;-76
2024/03/02 07:09:47;;;;;;;;;;;;;;;;;;5105211;28;19967;-78
2024/03/02 07:12:14;;;;;;;;;;;;;;;;;;5109564;28;20618;-77
2024/03/02 07:17:26;;;;;;;;;;;;;;;;;;5109987;28;19923;-78
2024/03/02 07:19:54;;;;;;;;;;;;;;;;;;5099393;28;19944;-82
2024/03/02 07:22:21;;;;;;;;;;;;;;;;;;5105635;28;19927;-78
2024/03/02 07:24:49;;;;;;;;;;;;;;;;;;5098193;28;19935;-72
2024/03/02 07:27:16;;;;;;;;;;;;;;;;;;5105874;28;19998;-83
2024/03/02 07:29:43;;;;;;;;;;;;;;;;;;5110075;28;19974;-83
2024/03/02 07:32:10;;;;;;;;;;;;;;;;;;5103687;28;19930;-82
2024/03/02 07:34:37;;;;;;;;;;;;;;;;;;5109054;28;20010;-82
2024/03/02 07:37:04;;;;;;;;;;;;;;;;;;5103846;28;19989;-82
2024/03/02 07:39:31;;;;;;;;;;;;;;;;;;5102070;28;19924;-81
2024/03/02 07:41:58;;;;;;;;;;;;;;;;;;5107672;28;19934;-81
2024/03/02 07:44:25;;;;;;;;;;;;;;;;;;5103110;28;19934;-82
2024/03/02 07:46:52;;;;;;;;;;;;;;;;;;5110957;28;19974;-84
2024/03/02 07:49:19;;;;;;;;;;;;;;;;;;5104550;28;20022;-80
2024/03/02 07:51:46;;;;;;;;;;;;;;;;;;5105707;28;20027;-85
2024/03/02 07:54:13;;;;;;;;;;;;;;;;;;5107058;28;20055;-84
2024/03/02 07:56:40;;;;;;;;;;;;;;;;;;5095004;28;19928;-81
2024/03/02 07:59:07;;;;;;;;;;;;;;;;;;5099965;28;19928;-80
2024/03/02 08:01:34;;;;;;;;;;;;;;;;;;5097889;28;19928;-84
2024/03/02 08:04:02;;;;;;;;;;;;;;;;;;5099024;28;19934;-83
2024/03/02 08:06:29;;;;;;;;;;;;;;;;;;5108989;28;19928;-83
2024/03/02 08:08:56;;;;;;;;;;;;;;;;;;5099003;28;19934;-79
2024/03/02 08:11:23;;;;;;;;;;;;;;;;;;5108817;28;19936;-77
2024/03/02 08:13:51;;;;;;;;;;;;;;;;;;5099662;28;19931;-79
2024/03/02 08:16:19;;;;;;;;;;;;;;;;;;5102416;28;19935;-75
2024/03/02 08:18:46;;;;;;;;;;;;;;;;;;5102884;28;20382;-78
2024/03/02 08:21:13;;;;;;;;;;;;;;;;;;5107779;28;19935;-76
2024/03/02 08:23:42;;;;;;;;;;;;;;;;;;5097264;28;20026;-78
2024/03/02 08:26:09;;;;;;;;;;;;;;;;;;5098818;28;19928;-79
2024/03/02 08:28:36;;;;;;;;;;;;;;;;;;5099146;28;20412;-76
2024/03/02 08:31:03;;;;;;;;;;;;;;;;;;5102633;28;20293;-77
2024/03/02 08:33:30;;;;;;;;;;;;;;;;;;5105468;28;19934;-79
2024/03/02 08:35:57;;;;;;;;;;;;;;;;;;5092615;28;19997;-79
2024/03/02 08:38:24;;;;;;;;;;;;;;;;;;5102581;28;20026;-80
2024/03/02 08:40:51;;;;;;;;;;;;;;;;;;5096168;28;20324;-81
2024/03/02 08:43:18;;;;;;;;;;;;;;;;;;5103567;28;20046;-80
2024/03/02 08:45:47;;;;;;;;;;;;;;;;;;5112564;28;20378;-80
2024/03/02 08:48:14;;;;;;;;;;;;;;;;;;5113850;28;19939;-80
2024/03/02 08:50:41;;;;;;;;;;;;;;;;;;5107740;28;19928;-76
2024/03/02 08:53:08;;;;;;;;;;;;;;;;;;5108916;28;20023;-82
2024/03/02 08:55:35;;;;;;;;;;;;;;;;;;5111881;28;19927;-79
2024/03/02 08:58:02;;;;;;;;;;;;;;;;;;5097348;28;20390;-81
2024/03/02 09:00:29;;;;;;;;;;;;;;;;;;5110166;28;19938;-77
2024/03/02 09:02:56;;;;;;;;;;;;;;;;;;5108932;28;20014;-79
2024/03/02 09:05:23;;;;;;;;;;;;;;;;;;5110801;28;20347;-76
2024/03/02 09:07:50;;;;;;;;;;;;;;;;;;5101668;28;19989;-77
2024/03/02 09:10:17;;;;;;;;;;;;;;;;;;5101633;28;19924;-78
2024/03/02 09:12:44;;;;;;;;;;;;;;;;;;5100254;28;20019;-79
2024/03/02 09:15:11;;;;;;;;;;;;;;;;;;5104932;28;20006;-79
2024/03/02 09:17:38;;;;;;;;;;;;;;;;;;5108319;28;19928;-81
2024/03/02 09:20:05;;;;;;;;;;;;;;;;;;5114190;28;19991;-80
2024/03/02 09:22:32;;;;;;;;;;;;;;;;;;5109794;28;19938;-81
2024/03/02 09:24:59;;;;;;;;;;;;;;;;;;5098357;28;20387;-80
2024/03/02 09:27:26;;;;;;;;;;;;;;;;;;5103719;28;19959;-78
2024/03/02 09:29:53;;;;;;;;;;;;;;;;;;5096046;28;19924;-80
2024/03/02 09:32:20;;;;;;;;;;;;;;;;;;5099975;28;20014;-79
2024/03/02 09:34:49;;;;;;;;;;;;;;;;;;5101681;28;19934;-77
2024/03/02 09:37:16;;;;;;;;;;;;;;;;;;5091643;28;19935;-77
2024/03/02 09:39:43;;;;;;;;;;;;;;;;;;5100862;28;19940;-76
2024/03/02 09:42:10;;;;;;;;;;;;;;;;;;5102949;28;19935;-71
2024/03/02 09:44:37;;;;;;;;;;;;;;;;;;5109289;28;20383;-71
2024/03/02 09:47:04;;;;;;;;;;;;;;;;;;5103415;28;20018;-71
2024/03/02 09:49:32;;;;;;;;;;;;;;;;;;5102755;28;19928;-72
2024/03/02 09:51:59;;;;;;;;;;;;;;;;;;5106160;28;20375;-72
2024/03/02 09:54:26;;;;;;;;;;;;;;;;;;5106950;28;20007;-73
2024/03/02 09:56:53;;;;;;;;;;;;;;;;;;5101055;28;20002;-72
2024/03/02 09:59:20;;;;;;;;;;;;;;;;;;5100758;28;20292;-72
2024/03/02 10:01:47;;;;;;;;;;;;;;;;;;5104289;28;20019;-72
2024/03/02 10:04:14;;;;;;;;;;;;;;;;;;5108786;28;20473;-72
2024/03/02 10:06:41;;;;;;;;;;;;;;;;;;5104986;28;19972;-73
2024/03/02 10:09:08;;;;;;;;;;;;;;;;;;5105173;28;19935;-80
2024/03/02 10:11:37;;;;;;;;;;;;;;;;;;5108912;28;20007;-75
2024/03/02 10:14:04;;;;;;;;;;;;;;;;;;5108903;28;19934;-81
2024/03/02 10:16:31;;;;;;;;;;;;;;;;;;5106504;28;20398;-73
2024/03/02 10:18:58;;;;;;;;;;;;;;;;;;5109815;28;20051;-74
2024/03/02 10:21:25;;;;;;;;;;;;;;;;;;5101446;28;19932;-72
2024/03/02 10:23:52;;;;;;;;;;;;;;;;;;5108115;28;19936;-80
2024/03/02 10:26:19;;;;;;;;;;;;;;;;;;5108058;27;19972;-83
2024/03/02 10:28:46;;;;;;;;;;;;;;;;;;5113124;28;20006;-83
2024/03/02 10:31:13;;;;;;;;;;;;;;;;;;5108363;28;20101;-79
2024/03/02 10:33:40;;;;;;;;;;;;;;;;;;5105799;28;20372;-81
2024/03/02 10:36:07;;;;;;;;;;;;;;;;;;5097865;28;20010;-80
2024/03/02 10:38:34;;;;;;;;;;;;;;;;;;5105921;28;20402;-79
2024/03/02 10:41:01;;;;;;;;;;;;;;;;;;5105506;28;20038;-83
2024/03/02 10:43:28;;;;;;;;;;;;;;;;;;5100438;28;20357;-83
2024/03/02 10:45:55;;;;;;;;;;;;;;;;;;5097704;28;19932;-75
2024/03/02 10:48:22;;;;;;;;;;;;;;;;;;5104891;28;20007;-72
2024/03/02 10:50:50;;;;;;;;;;;;;;;;;;5104964;28;20031;-69
2024/03/02 10:53:17;;;;;;;;;;;;;;;;;;5102814;28;20242;-73
2024/03/02 10:55:44;;;;;;;;;;;;;;;;;;5102763;28;19927;-71
2024/03/02 10:58:11;;;;;;;;;;;;;;;;;;5104264;28;20446;-70
2024/03/02 11:00:38;;;;;;;;;;;;;;;;;;5105580;28;20006;-72
2024/03/02 11:03:08;;;;;;;;;;;;;;;;;;5108945;28;20014;-76
2024/03/02 11:05:35;;;;;;;;;;;;;;;;;;5101456;27;19932;-74
2024/03/02 11:08:03;;;;;;;;;;;;;;;;;;5100058;28;20011;-74
2024/03/02 11:10:30;;;;;;;;;;;;;;;;;;5103030;28;19924;-82
2024/03/02 11:12:57;;;;;;;;;;;;;;;;;;5110448;28;19981;-84
2024/03/02 11:15:25;;;;;;;;;;;;;;;;;;5110288;28;20018;-86
2024/03/02 11:17:52;;;;;;;;;;;;;;;;;;5110654;28;19931;-84
2024/03/02 11:20:20;;;;;;;;;;;;;;;;;;5103407;28;19990;-83
2024/03/02 11:22:47;;;;;;;;;;;;;;;;;;5107399;27;19924;-84
2024/03/02 11:25:14;;;;;;;;;;;;;;;;;;5113045;28;20267;-83
2024/03/02 11:27:41;;;;;;;;;;;;;;;;;;5102628;28;20014;-82
2024/03/02 11:30:09;;;;;;;;;;;;;;;;;;5099812;28;20013;-84
2024/03/02 11:32:36;;;;;;;;;;;;;;;;;;5107335;28;20458;-85
2024/03/02 11:35:03;;;;;;;;;;;;;;;;;;5113020;28;20026;-83
2024/03/02 11:37:30;;;;;;;;;;;;;;;;;;5110648;28;19927;-78
2024/03/02 11:39:57;;;;;;;;;;;;;;;;;;5105618;28;19928;-80
2024/03/02 11:42:24;;;;;;;;;;;;;;;;;;5100747;28;20449;-80
2024/03/02 11:44:51;;;;;;;;;;;;;;;;;;5110083;28;19969;-81
2024/03/02 11:47:18;;;;;;;;;;;;;;;;;;5108896;28;20668;-82
2024/03/02 11:49:46;;;;;;;;;;;;;;;;;;5102112;28;19938;-82
2024/03/02 11:52:13;;;;;;;;;;;;;;;;;;5108461;28;20363;-82
2024/03/02 11:54:40;;;;;;;;;;;;;;;;;;5102340;28;19931;-81
2024/03/02 11:57:07;;;;;;;;;;;;;;;;;;5107919;28;19928;-80
2024/03/02 11:59:34;;;;;;;;;;;;;;;;;;5107448;28;19931;-81
2024/03/02 12:02:02;;;;;;;;;;;;;;;;;;5109128;28;19970;-80
2024/03/02 12:04:29;;;;;;;;;;;;;;;;;;5105627;28;20019;-81
2024/03/02 12:06:59;;;;;;;;;;;;;;;;;;5102799;28;19932;-80
2024/03/02 12:09:27;;;;;;;;;;;;;;;;;;5105107;28;19932;-82
2024/03/02 12:11:54;;;;;;;;;;;;;;;;;;5101953;28;20044;-80
2024/03/02 12:14:21;;;;;;;;;;;;;;;;;;5106795;28;20018;-80
2024/03/02 12:16:48;;;;;;;;;;;;;;;;;;5107427;28;19987;-81
2024/03/02 12:19:17;;;;;;;;;;;;;;;;;;5101216;28;19927;-81
2024/03/02 12:21:44;;;;;;;;;;;;;;;;;;5098634;28;19935;-81
2024/03/02 12:24:11;;;;;;;;;;;;;;;;;;5111512;28;20398;-82
2024/03/02 12:26:38;;;;;;;;;;;;;;;;;;5109619;28;20006;-79
2024/03/02 12:29:05;;;;;;;;;;;;;;;;;;5111514;28;20360;-82
2024/03/02 12:31:32;;;;;;;;;;;;;;;;;;5111609;28;19932;-82
2024/03/02 12:33:59;;;;;;;;;;;;;;;;;;5100906;28;19928;-82
2024/03/02 12:36:26;;;;;;;;;;;;;;;;;;5105706;28;19957;-81
2024/03/02 12:38:53;;;;;;;;;;;;;;;;;;5104333;28;19927;-81
2024/03/02 12:41:20;;;;;;;;;;;;;;;;;;5108492;28;19928;-81
2024/03/02 12:43:47;;;;;;;;;;;;;;;;;;5101337;28;20553;-81
2024/03/02 12:46:14;;;;;;;;;;;;;;;;;;5099873;27;19928;-81
2024/03/02 12:48:42;;;;;;;;;;;;;;;;;;5103958;28;19928;-80
2024/03/02 12:51:08;;;;;;;;;;;;;;;;;;5107302;28;20386;-81
2024/03/02 12:53:36;;;;;;;;;;;;;;;;;;5111571;27;19938;-81
2024/03/02 12:56:03;;;;;;;;;;;;;;;;;;5109063;28;20498;-81
2024/03/02 12:58:32;;;;;;;;;;;;;;;;;;5108513;28;19931;-82
2024/03/02 13:00:59;;;;;;;;;;;;;;;;;;5110945;28;19930;-80
2024/03/02 13:03:26;;;;;;;;;;;;;;;;;;5105395;28;20027;-80
2024/03/02 13:05:54;;;;;;;;;;;;;;;;;;5100504;28;20363;-80
2024/03/02 13:08:21;;;;;;;;;;;;;;;;;;5105570;28;19931;-81
2024/03/02 13:10:48;;;;;;;;;;;;;;;;;;5114008;28;19924;-81
2024/03/02 13:13:15;;;;;;;;;;;;;;;;;;5103780;28;19975;-79
2024/03/02 13:15:43;;;;;;;;;;;;;;;;;;5100962;28;20275;-81
2024/03/02 13:18:10;;;;;;;;;;;;;;;;;;5105758;28;19924;-81
2024/03/02 13:20:37;;;;;;;;;;;;;;;;;;5100498;28;19943;-80
2024/03/02 13:23:04;;;;;;;;;;;;;;;;;;5105857;28;19963;-80
2024/03/02 13:25:31;;;;;;;;;;;;;;;;;;5110868;28;20415;-81
2024/03/02 13:27:59;;;;;;;;;;;;;;;;;;5113385;28;19976;-83
2024/03/02 13:30:26;;;;;;;;;;;;;;;;;;5102952;28;19939;-83
2024/03/02 13:32:53;;;;;;;;;;;;;;;;;;5106201;28;19971;-83
2024/03/02 13:35:20;;;;;;;;;;;;;;;;;;5110786;28;19934;-83
2024/03/02 13:37:47;;;;;;;;;;;;;;;;;;5110421;28;19924;-86
2024/03/02 13:40:17;;;;;;;;;;;;;;;;;;5108865;28;20022;-80
2024/03/02 13:42:46;;;;;;;;;;;;;;;;;;5103116;28;19930;-82
2024/03/02 13:45:13;;;;;;;;;;;;;;;;;;5107306;28;20332;-71
2024/03/02 13:47:40;;;;;;;;;;;;;;;;;;5101157;28;19928;-71
2024/03/02 13:50:07;;;;;;;;;;;;;;;;;;5096307;28;19985;-70
2024/03/02 13:52:34;;;;;;;;;;;;;;;;;;5103466;28;19924;-70
2024/03/02 13:55:01;;;;;;;;;;;;;;;;;;5099630;28;20395;-69
2024/03/02 13:57:28;;;;;;;;;;;;;;;;;;5107667;27;19982;-69
2024/03/02 13:59:55;;;;;;;;;;;;;;;;;;5103798;28;20467;-69
2024/03/02 14:02:22;;;;;;;;;;;;;;;;;;5104775;28;19949;-69
2024/03/02 14:04:49;;;;;;;;;;;;;;;;;;5110464;28;20362;-69
2024/03/02 14:07:16;;;;;;;;;;;;;;;;;;5105418;28;20030;-69
2024/03/02 14:09:43;;;;;;;;;;;;;;;;;;5103198;28;19942;-69
2024/03/02 14:12:13;;;;;;;;;;;;;;;;;;5102577;28;19963;-68
2024/03/02 14:14:40;;;;;;;;;;;;;;;;;;5102289;28;19943;-69
2024/03/02 14:17:11;;;;;;;;;;;;;;;;;;5103035;28;20417;-68
2024/03/02 14:19:38;;;;;;;;;;;;;;;;;;5101149;28;20389;-69
2024/03/02 14:22:06;;;;;;;;;;;;;;;;;;5103203;28;19970;-69
2024/03/02 14:24:33;;;;;;;;;;;;;;;;;;5105833;28;20016;-70
2024/03/02 14:27:02;;;;;;;;;;;;;;;;;;5105111;28;20016;-70
2024/03/02 14:29:29;;;;;;;;;;;;;;;;;;5096318;28;19931;-69
2024/03/02 14:31:56;;;;;;;;;;;;;;;;;;5103048;28;20086;-70
2024/03/02 14:34:23;;;;;;;;;;;;;;;;;;5109832;28;19978;-70
2024/03/02 14:36:50;;;;;;;;;;;;;;;;;;5100798;28;20383;-70
2024/03/02 14:39:19;;;;;;;;;;;;;;;;;;5101304;28;19932;-70
2024/03/02 14:41:46;;;;;;;;;;;;;;;;;;5105646;28;19927;-70
2024/03/02 14:44:13;;;;;;;;;;;;;;;;;;5105377;28;20360;-70
2024/03/02 14:46:40;;;;;;;;;;;;;;;;;;5100326;28;19928;-70
2024/03/02 14:49:07;;;;;;;;;;;;;;;;;;5100204;28;19981;-71
2024/03/02 14:51:34;;;;;;;;;;;;;;;;;;5102659;28;20022;-69
2024/03/02 14:54:01;;;;;;;;;;;;;;;;;;5107432;28;19934;-70
2024/03/02 14:56:29;;;;;;;;;;;;;;;;;;5100408;28;19934;-70
2024/03/02 14:58:56;;;;;;;;;;;;;;;;;;5098054;28;19928;-70
2024/03/02 15:01:24;;;;;;;;;;;;;;;;;;5107624;28;19950;-71
2024/03/02 15:03:51;;;;;;;;;;;;;;;;;;5102103;28;20011;-70
2024/03/02 15:06:18;;;;;;;;;;;;;;;;;;5103688;28;19938;-69
2024/03/02 15:08:46;;;;;;;;;;;;;;;;;;5108759;28;19935;-69
2024/03/02 15:11:13;;;;;;;;;;;;;;;;;;5106782;28;19928;-68
2024/03/02 15:13:40;;;;;;;;;;;;;;;;;;5099537;28;20316;-69
2024/03/02 15:16:07;;;;;;;;;;;;;;;;;;5101983;28;19932;-70
2024/03/02 15:18:34;;;;;;;;;;;;;;;;;;5101892;28;20014;-71
2024/03/02 15:21:02;;;;;;;;;;;;;;;;;;5094674;28;19983;-70
2024/03/02 15:23:29;;;;;;;;;;;;;;;;;;5098756;28;19934;-70
2024/03/02 15:25:56;;;;;;;;;;;;;;;;;;5108764;28;19935;-71
2024/03/02 15:28:23;;;;;;;;;;;;;;;;;;5106069;28;19943;-70
2024/03/02 15:30:51;;;;;;;;;;;;;;;;;;5098524;28;19939;-70
2024/03/02 15:33:18;;;;;;;;;;;;;;;;;;5101687;28;19936;-69
2024/03/02 15:35:45;;;;;;;;;;;;;;;;;;5102661;28;19928;-70
2024/03/02 15:38:14;;;;;;;;;;;;;;;;;;5096189;28;20043;-70
2024/03/02 15:40:41;;;;;;;;;;;;;;;;;;5109120;28;19935;-70
2024/03/02 15:43:08;;;;;;;;;;;;;;;;;;5101916;28;20473;-70
2024/03/02 15:45:36;;;;;;;;;;;;;;;;;;5098191;28;19974;-70
2024/03/02 15:48:03;;;;;;;;;;;;;;;;;;5093078;28;20337;-71
2024/03/02 15:50:30;;;;;;;;;;;;;;;;;;5100899;28;19931;-70
2024/03/02 15:53:02;;;;;;;;;;;;;;;;;;5099626;28;19996;-70
2024/03/02 15:55:29;;;;;;;;;;;;;;;;;;5106090;28;19947;-73
2024/03/02 15:57:56;;;;;;;;;;;;;;;;;;5110966;28;20042;-71
2024/03/02 16:00:23;;;;;;;;;;;;;;;;;;5106822;28;19935;-72
2024/03/02 16:02:53;;;;;;;;;;;;;;;;;;5106756;28;19927;-72
2024/03/02 16:05:20;;;;;;;;;;;;;;;;;;5108235;28;19934;-72
2024/03/02 16:07:47;;;;;;;;;;;;;;;;;;5096706;28;20489;-73
2024/03/02 16:10:14;;;;;;;;;;;;;;;;;;5101322;28;19924;-73
2024/03/02 16:12:41;;;;;;;;;;;;;;;;;;5105422;28;19941;-78
2024/03/02 16:15:08;;;;;;;;;;;;;;;;;;5104755;28;20349;-79
2024/03/02 16:17:35;;;;;;;;;;;;;;;;;;5105313;28;20027;-77
2024/03/02 16:20:05;;;;;;;;;;;;;;;;;;5108845;28;19932;-77
2024/03/02 16:22:32;;;;;;;;;;;;;;;;;;5104916;28;20382;-76
2024/03/02 16:24:59;;;;;;;;;;;;;;;;;;5105077;28;20010;-79
2024/03/02 16:27:27;;;;;;;;;;;;;;;;;;5104985;28;19969;-76
2024/03/02 16:29:56;;;;;;;;;;;;;;;;;;5109000;28;19927;-78
2024/03/02 16:32:23;;;;;;;;;;;;;;;;;;5109914;28;19939;-75
2024/03/02 16:34:51;;;;;;;;;;;;;;;;;;5098009;28;20351;-76
2024/03/02 16:37:19;;;;;;;;;;;;;;;;;;5103646;28;20508;-76
2024/03/02 16:39:46;;;;;;;;;;;;;;;;;;5104317;28;19957;-78
2024/03/02 16:42:14;;;;;;;;;;;;;;;;;;5102826;28;19935;-77
2024/03/02 16:44:42;;;;;;;;;;;;;;;;;;5103468;28;19975;-77
2024/03/02 16:47:10;;;;;;;;;;;;;;;;;;5102790;28;19938;-77
2024/03/02 16:49:37;;;;;;;;;;;;;;;;;;5105341;27;19967;-77
2024/03/02 16:52:04;;;;;;;;;;;;;;;;;;5104237;28;19939;-77